Time;durP1;ratioP1;P1;durP2;ratioP2;P2;SDS_P1;SDS_P2;PMS_P1;PMS_P2;Temp;Humidity;BMP_temperature;BMP_pressure;BME280_temperature;BME280_humidity;BME280_pressure;Samples;Min_cycle;Max_cycle;Signal;HPM_P1;HPM_P2
2022/09/12 00:01:31;;;;;;;1.20;1.20;;;16.10;93.00;;;;;;5051152;28;20191;-75
2022/09/12 00:03:59;;;;;;;1.42;1.42;;;16.20;91.90;;;;;;5048524;28;20271;-75
2022/09/12 00:06:34;;;;;;;2.50;1.30;;;16.20;92.20;;;;;;5045858;28;20175;-75
2022/09/12 00:09:06;;;;;;;1.35;1.35;;;16.00;92.40;;;;;;5049813;28;20190;-76
2022/09/12 00:11:36;;;;;;;1.50;1.50;;;15.90;93.00;;;;;;5056483;28;20219;-76
2022/09/12 00:14:03;;;;;;;1.60;1.48;;;15.80;93.40;;;;;;5052286;28;20184;-76
2022/09/12 00:16:31;;;;;;;1.33;1.33;;;15.80;93.30;;;;;;5052873;28;20222;-76
2022/09/12 00:18:57;;;;;;;1.50;1.50;;;15.90;92.80;;;;;;5051964;28;20258;-75
2022/09/12 00:21:23;;;;;;;1.50;1.50;;;15.80;93.30;;;;;;5051571;28;20184;-75
2022/09/12 00:23:49;;;;;;;1.55;1.50;;;15.80;93.00;;;;;;5051968;28;20178;-76
2022/09/12 00:26:16;;;;;;;1.48;1.48;;;15.80;93.70;;;;;;5053829;28;20585;-76
2022/09/12 00:28:43;;;;;;;3.17;1.45;;;15.60;93.80;;;;;;5047348;28;20641;-76
2022/09/12 00:31:12;;;;;;;1.23;1.23;;;15.60;93.60;;;;;;5053301;28;20217;-77
2022/09/12 00:33:39;;;;;;;1.42;1.33;;;15.60;93.40;;;;;;5051916;28;20187;-76
2022/09/12 00:36:08;;;;;;;1.58;1.58;;;15.70;92.70;;;;;;5050466;28;20190;-76
2022/09/12 00:38:37;;;;;;;1.73;1.73;;;15.70;92.60;;;;;;5053944;28;20187;-76
2022/09/12 00:41:04;;;;;;;1.30;1.30;;;15.80;92.40;;;;;;5052290;28;20184;-76
2022/09/12 00:43:41;;;;;;;1.40;1.40;;;15.70;92.80;;;;;;5051851;28;20196;-76
2022/09/12 00:46:15;;;;;;;1.30;1.30;;;15.70;92.40;;;;;;5052083;28;20237;-76
2022/09/12 00:48:48;;;;;;;1.58;1.58;;;15.70;91.90;;;;;;5050311;28;20184;-76
2022/09/12 00:51:15;;;;;;;1.40;1.40;;;15.80;91.30;;;;;;5051210;28;20744;-76
2022/09/12 00:53:43;;;;;;;1.48;1.48;;;15.80;91.50;;;;;;5051560;28;20560;-76
2022/09/12 00:56:10;;;;;;;1.63;1.63;;;15.80;91.20;;;;;;5055474;28;20817;-76
2022/09/12 00:58:43;;;;;;;1.05;1.05;;;15.80;91.80;;;;;;5046153;28;20652;-75
2022/09/12 01:01:09;;;;;;;1.00;1.00;;;15.70;92.00;;;;;;5047418;28;20310;-75
2022/09/12 01:03:34;;;;;;;1.00;1.00;;;15.60;91.70;;;;;;5048747;28;20263;-76
2022/09/12 01:06:14;;;;;;;1.50;1.50;;;15.70;91.50;;;;;;5049911;28;20193;-76
2022/09/12 01:08:43;;;;;;;1.20;1.20;;;15.70;91.30;;;;;;5053200;28;20183;-76
2022/09/12 01:11:11;;;;;;;1.10;1.10;;;15.60;90.90;;;;;;5049666;28;20207;-76
2022/09/12 01:13:37;;;;;;;1.05;1.05;;;15.60;91.20;;;;;;5050116;28;20195;-76
2022/09/12 01:16:07;;;;;;;0.90;0.90;;;15.50;91.40;;;;;;5048521;28;20192;-76
2022/09/12 01:18:50;;;;;;;0.93;0.93;;;15.60;90.80;;;;;;5049484;28;20191;-76
2022/09/12 01:21:52;;;;;;;1.33;1.33;;;15.50;91.00;;;;;;5052357;28;20571;-76
2022/09/12 01:24:58;;;;;;;1.08;1.08;;;15.50;90.50;;;;;;5043115;28;20182;-75
2022/09/12 01:27:29;;;;;;;0.85;0.85;;;15.40;90.60;;;;;;5052449;28;20600;-76
2022/09/12 01:30:20;;;;;;;0.70;0.70;;;15.40;91.50;;;;;;5047068;28;20199;-77
2022/09/12 01:33:09;;;;;;;1.13;1.13;;;15.40;91.40;;;;;;5049957;28;20554;-75
2022/09/12 01:35:48;;;;;;;1.00;1.00;;;15.30;91.40;;;;;;5048064;28;20183;-75
2022/09/12 01:38:35;;;;;;;1.00;1.00;;;15.30;90.90;;;;;;5050665;28;20380;-75
2022/09/12 01:41:19;;;;;;;0.80;0.80;;;15.20;91.30;;;;;;5048815;28;20217;-75
2022/09/12 01:43:55;;;;;;;0.93;0.93;;;15.30;91.40;;;;;;5048727;28;20733;-75
2022/09/12 01:46:44;;;;;;;0.80;0.80;;;15.10;91.70;;;;;;5053256;28;20194;-75
2022/09/12 01:49:22;;;;;;;1.10;1.10;;;15.20;91.10;;;;;;5046496;28;20180;-77
2022/09/12 01:51:47;;;;;;;0.77;0.77;;;15.10;92.00;;;;;;5051467;28;20253;-75
2022/09/12 01:54:25;;;;;;;1.13;0.95;;;15.20;92.10;;;;;;5048689;28;20192;-77
2022/09/12 01:56:55;;;;;;;0.80;0.80;;;15.10;91.60;;;;;;5041481;28;20695;-77
2022/09/12 01:59:42;;;;;;;1.30;0.77;;;15.20;91.50;;;;;;5051260;28;20191;-77
2022/09/12 02:02:32;;;;;;;1.20;1.10;;;15.10;92.00;;;;;;5048300;28;21450;-75
2022/09/12 02:05:24;;;;;;;0.80;0.80;;;15.00;92.10;;;;;;5049312;28;20271;-75
2022/09/12 02:08:37;;;;;;;0.88;0.88;;;14.90;92.50;;;;;;5049045;28;20176;-77
2022/09/12 02:11:11;;;;;;;0.93;0.93;;;14.80;92.30;;;;;;4986158;28;20327;-75
2022/09/12 02:13:42;;;;;;;0.90;0.90;;;14.90;91.80;;;;;;4986149;28;20292;-76
2022/09/12 02:16:15;;;;;;;0.80;0.80;;;14.90;91.40;;;;;;4986064;28;20186;-75
2022/09/12 02:18:46;;;;;;;0.93;0.93;;;15.00;91.30;;;;;;4985951;28;20743;-76
2022/09/12 02:21:12;;;;;;;0.80;0.80;;;14.90;91.00;;;;;;4987115;28;20197;-75
2022/09/12 02:23:47;;;;;;;1.05;1.05;;;14.80;91.80;;;;;;4985127;28;20203;-76
2022/09/12 02:26:31;;;;;;;0.75;0.68;;;14.90;91.00;;;;;;4989444;28;20200;-76
2022/09/12 02:28:57;;;;;;;0.80;0.80;;;14.90;90.70;;;;;;4986124;28;20199;-77
2022/09/12 02:31:31;;;;;;;0.70;0.70;;;14.90;90.90;;;;;;4989870;28;20221;-77
2022/09/12 02:34:09;;;;;;;0.70;0.70;;;14.90;90.60;;;;;;4986095;28;20202;-76
2022/09/12 02:37:01;;;;;;;0.65;0.65;;;14.80;90.40;;;;;;4983371;28;20190;-77
2022/09/12 02:39:27;;;;;;;0.60;0.60;;;14.70;90.90;;;;;;4904107;29;20206;-77
2022/09/12 02:41:55;;;;;;;0.80;0.80;;;14.70;90.90;;;;;;4902842;29;20208;-76
2022/09/12 02:44:23;;;;;;;0.70;0.70;;;14.80;90.50;;;;;;4903749;29;20204;-77
2022/09/12 02:46:57;;;;;;;0.70;0.70;;;14.90;90.10;;;;;;4947472;28;20204;-76
2022/09/12 02:49:24;;;;;;;0.80;0.80;;;14.80;90.20;;;;;;4980774;28;20953;-75
2022/09/12 02:51:50;;;;;;;0.68;0.68;;;14.90;90.20;;;;;;4981570;28;20631;-76
2022/09/12 02:54:18;;;;;;;0.80;0.80;;;14.90;90.20;;;;;;4981660;28;20237;-76
2022/09/12 02:56:44;;;;;;;0.70;0.70;;;14.80;90.10;;;;;;4984781;28;20200;-75
2022/09/12 02:59:16;;;;;;;0.50;0.50;;;14.80;90.40;;;;;;4985541;28;20185;-76
2022/09/12 03:01:51;;;;;;;0.50;0.50;;;14.80;90.10;;;;;;5002029;28;20343;-75
2022/09/12 03:04:46;;;;;;;0.70;0.70;;;14.80;89.80;;;;;;4984563;28;20192;-75
2022/09/12 03:07:11;;;;;;;1.40;0.60;;;14.80;89.40;;;;;;4984457;28;20264;-75
2022/09/12 03:09:57;;;;;;;0.70;0.70;;;14.70;90.20;;;;;;4984957;28;20292;-76
2022/09/12 03:12:29;;;;;;;2.60;0.95;;;14.60;91.00;;;;;;4967369;28;20221;-75
2022/09/12 03:15:40;;;;;;;0.80;0.80;;;14.60;90.80;;;;;;4983867;28;20644;-75
2022/09/12 03:18:42;;;;;;;1.08;0.90;;;14.70;90.70;;;;;;5018251;28;20192;-74
2022/09/12 03:21:20;;;;;;;0.70;0.70;;;14.70;90.10;;;;;;5018481;28;20197;-77
2022/09/12 03:24:04;;;;;;;0.60;0.60;;;14.70;90.10;;;;;;5014157;28;20654;-76
2022/09/12 03:26:44;;;;;;;0.65;0.65;;;14.70;90.20;;;;;;5016668;28;20190;-76
2022/09/12 03:29:12;;;;;;;0.60;0.60;;;14.70;90.10;;;;;;5010570;28;20965;-77
2022/09/12 03:31:51;;;;;;;1.48;0.80;;;14.70;90.50;;;;;;5018086;28;20222;-77
2022/09/12 03:34:17;;;;;;;0.63;0.63;;;14.60;90.10;;;;;;5017505;28;20188;-74
2022/09/12 03:36:43;;;;;;;10.25;0.82;;;14.60;90.30;;;;;;5016564;28;20188;-74
2022/09/12 03:39:09;;;;;;;0.80;0.80;;;14.60;90.40;;;;;;5013248;28;21012;-75
2022/09/12 03:41:34;;;;;;;1.00;1.00;;;14.50;91.10;;;;;;5015551;28;20230;-76
2022/09/12 03:44:01;;;;;;;0.90;0.90;;;14.50;91.50;;;;;;5011739;28;20203;-75
2022/09/12 03:46:27;;;;;;;2.33;0.90;;;14.50;91.10;;;;;;5015740;28;20188;-76
2022/09/12 03:48:52;;;;;;;0.88;0.88;;;14.60;91.00;;;;;;5036600;28;20202;-75
2022/09/12 03:51:18;;;;;;;0.80;0.80;;;14.60;90.90;;;;;;5047735;28;20215;-75
2022/09/12 03:53:43;;;;;;;0.80;0.80;;;14.50;91.00;;;;;;5050303;28;20252;-76
2022/09/12 03:56:11;;;;;;;0.80;0.80;;;14.50;91.10;;;;;;5053422;28;20180;-74
2022/09/12 03:58:37;;;;;;;0.80;0.80;;;14.60;90.80;;;;;;5053743;28;20191;-75
2022/09/12 04:01:12;;;;;;;0.90;0.90;;;14.60;90.70;;;;;;5051543;28;20183;-74
2022/09/12 04:03:42;;;;;;;0.73;0.73;;;14.50;90.60;;;;;;5086593;28;20824;-75
2022/09/12 04:06:09;;;;;;;1.13;1.13;;;14.60;90.20;;;;;;5050855;28;20187;-75
2022/09/12 04:08:36;;;;;;;0.75;0.75;;;14.60;90.40;;;;;;5053799;28;20707;-76
2022/09/12 04:11:06;;;;;;;1.40;0.85;;;14.60;90.50;;;;;;5055059;28;20268;-74
2022/09/12 04:13:33;;;;;;;0.70;0.70;;;14.50;90.80;;;;;;5053046;28;20187;-75
2022/09/12 04:15:59;;;;;;;0.90;0.90;;;14.50;91.10;;;;;;5059783;28;20722;-74
2022/09/12 04:18:26;;;;;;;0.80;0.80;;;14.50;91.40;;;;;;5084299;28;20183;-76
2022/09/12 04:20:51;;;;;;;0.73;0.73;;;14.50;91.20;;;;;;5055858;28;20586;-76
2022/09/12 04:23:17;;;;;;;1.08;1.08;;;14.50;91.70;;;;;;5054283;28;20260;-76
2022/09/12 04:25:43;;;;;;;0.93;0.93;;;14.40;91.90;;;;;;5055122;28;20180;-76
2022/09/12 04:28:08;;;;;;;0.98;0.98;;;14.40;91.70;;;;;;5046245;28;20258;-75
2022/09/12 04:30:35;;;;;;;3.30;1.10;;;14.40;92.20;;;;;;5055397;28;20698;-77
2022/09/12 04:33:00;;;;;;;1.13;1.13;;;14.30;92.70;;;;;;5050357;28;20180;-76
2022/09/12 04:35:26;;;;;;;1.35;1.35;;;14.40;92.60;;;;;;5051383;28;20243;-76
2022/09/12 04:37:52;;;;;;;3.70;1.20;;;14.40;92.30;;;;;;5045867;28;20294;-77
2022/09/12 04:40:18;;;;;;;1.08;1.08;;;14.40;92.60;;;;;;5050629;28;20744;-76
2022/09/12 04:42:44;;;;;;;1.45;1.45;;;14.40;92.40;;;;;;5046390;28;20215;-76
2022/09/12 04:45:10;;;;;;;3.92;1.35;;;14.40;92.40;;;;;;5048100;28;20227;-76
2022/09/12 04:47:36;;;;;;;1.67;1.58;;;14.50;92.50;;;;;;5051516;28;20187;-77
2022/09/12 04:50:02;;;;;;;1.30;1.30;;;14.50;92.70;;;;;;5047300;28;20240;-75
2022/09/12 04:52:27;;;;;;;1.17;1.17;;;14.50;93.10;;;;;;5050123;28;20219;-76
2022/09/12 04:54:53;;;;;;;2.30;1.63;;;14.50;93.00;;;;;;5049429;28;20241;-76
2022/09/12 04:57:19;;;;;;;1.10;1.10;;;14.50;92.60;;;;;;5047990;28;20176;-76
2022/09/12 04:59:44;;;;;;;1.25;1.20;;;14.50;92.60;;;;;;5052031;28;20210;-76
2022/09/12 05:02:10;;;;;;;1.20;1.20;;;14.50;92.90;;;;;;5051633;28;20192;-76
2022/09/12 05:04:36;;;;;;;1.27;1.27;;;14.50;92.80;;;;;;5051084;28;20183;-76
2022/09/12 05:07:02;;;;;;;1.10;1.10;;;14.50;92.20;;;;;;5049650;28;20199;-76
2022/09/12 05:09:28;;;;;;;1.30;1.20;;;14.70;91.50;;;;;;5045738;28;20193;-76
2022/09/12 05:11:53;;;;;;;1.27;1.23;;;14.70;92.00;;;;;;5044963;28;20207;-76
2022/09/12 05:14:19;;;;;;;1.27;1.27;;;14.80;91.60;;;;;;5038102;28;20706;-75
2022/09/12 05:16:45;;;;;;;2.70;1.52;;;14.80;91.10;;;;;;5044935;28;20179;-76
2022/09/12 05:19:11;;;;;;;1.70;1.60;;;14.90;91.00;;;;;;5048619;28;20195;-75
2022/09/12 05:21:37;;;;;;;1.35;1.25;;;14.90;90.80;;;;;;5050466;28;20198;-75
2022/09/12 05:24:05;;;;;;;2.25;1.17;;;14.90;91.00;;;;;;5047634;28;20614;-76
2022/09/12 05:26:30;;;;;;;1.10;1.10;;;14.80;90.70;;;;;;5050010;28;20181;-76
2022/09/12 05:28:56;;;;;;;1.10;1.10;;;14.90;90.90;;;;;;5053450;28;20186;-75
2022/09/12 05:31:25;;;;;;;1.23;1.23;;;14.90;90.60;;;;;;5048051;28;20219;-75
2022/09/12 05:33:52;;;;;;;1.13;1.13;;;15.00;90.50;;;;;;5050996;28;20543;-76
2022/09/12 05:36:29;;;;;;;1.13;1.10;;;15.10;90.20;;;;;;5049151;28;20228;-75
2022/09/12 05:38:55;;;;;;;2.70;1.40;;;15.20;89.70;;;;;;5049568;28;20876;-75
2022/09/12 05:41:23;;;;;;;1.02;1.02;;;15.30;89.70;;;;;;5045454;28;20185;-77
2022/09/12 05:43:58;;;;;;;1.80;1.08;;;15.30;89.60;;;;;;5045341;28;20346;-76
2022/09/12 05:46:26;;;;;;;1.20;1.20;;;15.30;89.60;;;;;;5042097;28;20194;-76
2022/09/12 05:48:53;;;;;;;1.02;1.02;;;15.40;89.60;;;;;;5046401;28;20587;-76
2022/09/12 05:51:32;;;;;;;1.10;1.10;;;15.40;89.00;;;;;;5045864;28;20333;-76
2022/09/12 05:54:00;;;;;;;1.38;1.35;;;15.60;88.50;;;;;;5047412;28;20195;-76
2022/09/12 05:56:28;;;;;;;1.15;1.15;;;15.70;88.60;;;;;;5043113;28;20259;-76
2022/09/12 05:58:55;;;;;;;1.08;1.08;;;15.80;88.70;;;;;;5042293;28;20643;-74
2022/09/12 06:01:21;;;;;;;1.33;1.33;;;15.80;88.00;;;;;;5050383;28;20218;-74
2022/09/12 06:03:50;;;;;;;1.58;1.58;;;15.90;88.20;;;;;;5054071;28;20179;-76
2022/09/12 06:06:17;;;;;;;1.50;1.40;;;16.10;87.50;;;;;;5048605;28;20179;-76
2022/09/12 06:08:45;;;;;;;1.38;1.38;;;16.20;87.20;;;;;;5050723;28;20278;-77
2022/09/12 06:11:16;;;;;;;1.60;1.60;;;16.30;86.40;;;;;;5053067;28;20272;-76
2022/09/12 06:13:43;;;;;;;1.48;1.48;;;16.40;86.70;;;;;;5051980;28;20190;-76
2022/09/12 06:16:11;;;;;;;1.80;1.80;;;16.40;86.50;;;;;;5052227;28;20619;-76
2022/09/12 06:18:38;;;;;;;1.50;1.50;;;16.50;86.50;;;;;;5050760;28;20190;-75
2022/09/12 06:21:05;;;;;;;1.38;1.38;;;16.60;86.30;;;;;;5046429;28;20224;-76
2022/09/12 06:23:31;;;;;;;1.60;1.60;;;16.60;85.60;;;;;;5045190;28;20199;-76
2022/09/12 06:25:57;;;;;;;1.50;1.50;;;16.70;85.70;;;;;;5049169;28;20201;-76
2022/09/12 06:28:23;;;;;;;1.60;1.60;;;16.80;85.80;;;;;;5047358;28;20685;-76
2022/09/12 06:30:49;;;;;;;1.70;1.70;;;16.70;85.40;;;;;;5053337;28;20214;-77
2022/09/12 06:33:15;;;;;;;1.80;1.70;;;16.70;85.50;;;;;;5050965;28;20193;-76
2022/09/12 06:35:41;;;;;;;2.17;1.75;;;16.70;85.30;;;;;;5051732;28;20548;-77
2022/09/12 06:38:08;;;;;;;1.50;1.50;;;16.70;85.50;;;;;;5044109;28;20253;-77
2022/09/12 06:40:34;;;;;;;1.95;1.95;;;16.80;85.20;;;;;;5049452;28;20352;-77
2022/09/12 06:43:00;;;;;;;1.92;1.92;;;16.90;85.50;;;;;;5048110;28;20636;-77
2022/09/12 06:45:26;;;;;;;1.85;1.75;;;17.00;85.50;;;;;;5049005;28;20272;-76
2022/09/12 06:47:52;;;;;;;2.35;2.25;;;17.10;85.00;;;;;;5049312;28;20179;-76
2022/09/12 06:50:17;;;;;;;2.03;2.03;;;17.10;84.90;;;;;;5045982;28;20175;-76
2022/09/12 06:52:43;;;;;;;2.22;2.13;;;17.20;84.60;;;;;;5050481;28;20180;-76
2022/09/12 06:55:09;;;;;;;1.92;1.92;;;17.30;84.70;;;;;;5045610;28;20190;-75
2022/09/12 06:57:37;;;;;;;3.72;2.05;;;17.40;84.90;;;;;;5047989;28;20258;-77
2022/09/12 07:00:04;;;;;;;2.25;2.05;;;17.50;84.50;;;;;;5045635;28;20558;-76
2022/09/12 07:02:30;;;;;;;2.10;2.05;;;17.50;83.90;;;;;;5049287;28;20190;-77
2022/09/12 07:04:56;;;;;;;1.80;1.80;;;17.50;83.90;;;;;;5048409;28;20708;-76
2022/09/12 07:07:23;;;;;;;2.00;2.00;;;17.60;83.70;;;;;;5048227;28;20190;-77
2022/09/12 07:09:49;;;;;;;1.70;1.70;;;17.50;83.80;;;;;;5052329;28;20272;-77
2022/09/12 07:12:15;;;;;;;1.98;1.88;;;17.50;83.80;;;;;;5051060;28;20211;-77
2022/09/12 07:14:40;;;;;;;2.00;2.00;;;17.50;83.40;;;;;;5051583;28;20619;-77
2022/09/12 07:17:07;;;;;;;1.70;1.63;;;17.50;83.50;;;;;;5043954;28;20696;-77
2022/09/12 07:19:33;;;;;;;2.45;2.40;;;17.50;83.20;;;;;;5043763;28;20213;-78
2022/09/12 07:21:59;;;;;;;1.92;1.92;;;17.60;83.30;;;;;;5048426;28;20188;-77
2022/09/12 07:24:26;;;;;;;2.08;2.08;;;17.60;82.10;;;;;;5047859;28;20176;-77
2022/09/12 07:26:51;;;;;;;2.88;2.63;;;17.70;82.30;;;;;;5046684;28;20649;-78
2022/09/12 07:29:17;;;;;;;2.13;2.03;;;17.70;82.10;;;;;;5042100;28;20215;-78
2022/09/12 07:31:43;;;;;;;2.53;2.45;;;17.70;82.20;;;;;;5047271;28;20216;-76
2022/09/12 07:34:10;;;;;;;2.22;2.22;;;17.80;81.60;;;;;;5050297;28;20202;-76
2022/09/12 07:36:36;;;;;;;2.10;2.05;;;17.90;81.10;;;;;;5047069;28;20183;-77
2022/09/12 07:39:02;;;;;;;2.00;2.00;;;18.00;79.40;;;;;;5045283;28;20183;-76
2022/09/12 07:41:30;;;;;;;1.92;1.92;;;18.10;79.80;;;;;;5049846;28;20576;-77
2022/09/12 07:43:58;;;;;;;2.80;2.58;;;18.40;80.10;;;;;;5049731;28;20183;-77
2022/09/12 07:46:25;;;;;;;2.90;2.80;;;18.60;79.20;;;;;;5048859;28;20565;-77
2022/09/12 07:48:56;;;;;;;2.30;2.30;;;18.60;78.70;;;;;;5049728;28;20183;-77
2022/09/12 07:51:25;;;;;;;2.88;2.78;;;18.60;78.30;;;;;;5045022;28;21087;-77
2022/09/12 07:53:51;;;;;;;2.25;2.15;;;18.70;78.40;;;;;;5051833;28;20192;-77
2022/09/12 07:56:20;;;;;;;2.83;2.72;;;18.70;77.10;;;;;;5049983;28;21418;-78
2022/09/12 07:58:46;;;;;;;2.95;2.75;;;18.70;76.60;;;;;;5046727;28;20194;-77
2022/09/12 08:01:14;;;;;;;2.53;2.42;;;18.70;76.20;;;;;;5051485;28;20272;-77
2022/09/12 08:03:41;;;;;;;2.38;2.28;;;18.70;76.70;;;;;;5051809;28;20191;-77
2022/09/12 08:06:12;;;;;;;2.00;2.00;;;18.60;77.00;;;;;;5045510;28;20861;-76
2022/09/12 08:08:39;;;;;;;1.95;1.95;;;18.60;77.10;;;;;;5050867;28;20190;-76
2022/09/12 08:11:08;;;;;;;2.10;2.10;;;18.50;77.20;;;;;;5050811;28;20331;-75
2022/09/12 08:13:35;;;;;;;2.47;2.38;;;18.60;77.10;;;;;;5054746;28;20267;-75
2022/09/12 08:16:04;;;;;;;3.80;2.35;;;18.70;77.10;;;;;;5052486;28;20190;-74
2022/09/12 08:18:31;;;;;;;2.00;1.90;;;18.90;76.40;;;;;;5046356;28;20183;-74
2022/09/12 08:21:02;;;;;;;1.77;1.77;;;18.90;76.40;;;;;;5052213;28;20176;-75
2022/09/12 08:23:28;;;;;;;1.92;1.83;;;18.90;75.90;;;;;;5065842;28;20222;-74
2022/09/12 08:26:02;;;;;;;1.67;1.67;;;18.90;76.10;;;;;;5047543;28;20737;-75
2022/09/12 08:28:30;;;;;;;1.55;1.55;;;19.10;76.30;;;;;;5049075;28;20237;-74
2022/09/12 08:31:02;;;;;;;1.70;1.70;;;19.10;76.40;;;;;;5052229;28;20306;-75
2022/09/12 08:33:32;;;;;;;2.20;2.20;;;19.30;76.20;;;;;;5047153;28;20180;-75
2022/09/12 08:36:09;;;;;;;1.80;1.80;;;19.60;75.80;;;;;;5045026;28;20222;-75
2022/09/12 08:38:37;;;;;;;1.75;1.75;;;19.70;74.60;;;;;;5046692;28;20262;-75
2022/09/12 08:41:17;;;;;;;1.70;1.70;;;19.90;74.10;;;;;;5047320;28;20187;-75
2022/09/12 08:43:55;;;;;;;1.45;1.45;;;20.10;74.30;;;;;;5048308;28;20202;-75
2022/09/12 08:46:53;;;;;;;1.63;1.63;;;20.30;73.00;;;;;;5050812;28;20183;-76
2022/09/12 08:49:47;;;;;;;2.00;1.90;;;20.40;72.50;;;;;;5008026;28;20235;-76
2022/09/12 08:52:35;;;;;;;1.73;1.73;;;20.40;72.10;;;;;;4987924;28;20239;-74
2022/09/12 08:55:05;;;;;;;2.00;2.00;;;20.40;72.50;;;;;;5006708;28;20211;-75
2022/09/12 08:57:31;;;;;;;1.88;1.88;;;20.50;71.80;;;;;;5007652;28;20279;-75
2022/09/12 08:59:57;;;;;;;2.45;2.40;;;20.60;71.90;;;;;;5006112;28;20197;-75
2022/09/12 09:02:42;;;;;;;1.73;1.73;;;20.70;71.90;;;;;;5002173;28;20267;-76
2022/09/12 09:05:46;;;;;;;2.53;1.98;;;20.50;71.40;;;;;;5006846;28;20222;-76
2022/09/12 09:08:29;;;;;;;1.90;1.90;;;20.30;71.50;;;;;;5007669;28;20238;-76
2022/09/12 09:11:19;;;;;;;2.60;2.47;;;20.40;72.30;;;;;;5004797;28;20687;-75
2022/09/12 09:16:47;;;;;;;1.70;1.70;;;20.80;70.40;;;;;;5000643;28;20327;-76
2022/09/12 09:19:24;;;;;;;1.95;1.95;;;21.00;69.70;;;;;;5004103;28;20746;-75
2022/09/12 09:22:03;;;;;;;2.10;2.10;;;21.40;69.40;;;;;;5002865;28;20312;-76
2022/09/12 09:24:57;;;;;;;2.20;2.10;;;21.80;69.30;;;;;;5002174;28;20291;-76
2022/09/12 09:27:45;;;;;;;1.98;1.98;;;22.30;67.70;;;;;;5051367;28;21023;-76
2022/09/12 09:30:18;;;;;;;1.90;1.90;;;22.70;66.40;;;;;;5059764;28;20657;-75
2022/09/12 09:32:49;;;;;;;2.38;2.38;;;22.90;65.20;;;;;;5044214;28;20188;-75
2022/09/12 09:35:21;;;;;;;2.20;2.20;;;22.90;66.10;;;;;;5049290;28;20528;-75
2022/09/12 09:38:14;;;;;;;2.20;2.20;;;22.90;65.80;;;;;;5047075;28;20183;-75
2022/09/12 09:40:48;;;;;;;2.50;2.50;;;23.40;65.90;;;;;;5050152;28;20677;-75
2022/09/12 09:43:22;;;;;;;2.42;2.42;;;24.00;64.80;;;;;;5049362;28;20690;-75
2022/09/12 09:45:50;;;;;;;2.00;2.00;;;24.40;64.20;;;;;;5043435;28;20817;-75
2022/09/12 09:48:24;;;;;;;2.10;2.10;;;24.70;63.00;;;;;;5042338;28;20278;-75
2022/09/12 09:50:51;;;;;;;3.55;1.92;;;25.00;62.40;;;;;;5042597;28;20239;-76
2022/09/12 09:53:36;;;;;;;2.20;2.20;;;25.50;62.00;;;;;;5040478;28;20271;-75
2022/09/12 09:56:32;;;;;;;2.50;2.30;;;25.80;60.00;;;;;;5045831;28;20206;-75
2022/09/12 09:59:17;;;;;;;1.95;1.95;;;25.90;59.60;;;;;;4980907;28;20197;-77
2022/09/12 10:01:53;;;;;;;1.98;1.98;;;25.50;60.20;;;;;;4980114;28;20191;-77
2022/09/12 10:04:27;;;;;;;1.90;1.88;;;25.10;61.10;;;;;;4980532;28;20196;-75
2022/09/12 10:06:57;;;;;;;1.80;1.80;;;25.00;62.60;;;;;;4985696;28;20198;-76
2022/09/12 10:09:28;;;;;;;2.30;2.30;;;25.10;61.70;;;;;;4971097;28;20725;-77
2022/09/12 10:11:56;;;;;;;1.80;1.80;;;25.40;61.40;;;;;;4981898;28;20224;-77
2022/09/12 10:14:40;;;;;;;1.75;1.70;;;25.40;60.00;;;;;;4984444;28;20193;-76
2022/09/12 10:17:30;;;;;;;1.88;1.88;;;25.60;61.10;;;;;;4981204;28;20193;-77
2022/09/12 10:19:57;;;;;;;1.80;1.80;;;26.20;59.60;;;;;;4983786;28;20809;-76
2022/09/12 10:22:28;;;;;;;2.47;2.38;;;26.50;58.90;;;;;;4983791;28;20197;-75
2022/09/12 10:24:58;;;;;;;2.63;2.53;;;26.60;59.50;;;;;;4983622;28;20267;-76
2022/09/12 10:27:34;;;;;;;2.65;2.65;;;26.60;59.10;;;;;;4987718;28;21081;-76
2022/09/12 10:30:00;;;;;;;2.90;2.80;;;26.60;59.90;;;;;;4987373;28;20235;-78
2022/09/12 10:32:34;;;;;;;2.67;2.67;;;26.80;59.80;;;;;;4985056;28;20213;-80
2022/09/12 10:35:22;;;;;;;2.90;2.80;;;26.80;58.50;;;;;;4993111;28;20205;-75
2022/09/12 10:37:55;;;;;;;2.88;2.88;;;26.80;58.20;;;;;;5050488;28;20198;-77
2022/09/12 10:40:38;;;;;;;2.80;2.72;;;26.80;59.10;;;;;;5046356;28;20190;-75
2022/09/12 10:43:26;;;;;;;2.60;2.60;;;26.80;58.30;;;;;;5043864;28;20179;-75
2022/09/12 10:45:57;;;;;;;2.30;2.20;;;26.90;56.90;;;;;;5042675;28;20679;-75
2022/09/12 10:48:30;;;;;;;2.45;2.35;;;26.80;56.60;;;;;;5049147;28;20359;-75
2022/09/12 10:50:57;;;;;;;2.10;2.10;;;26.70;56.50;;;;;;5041299;28;20223;-75
2022/09/12 10:53:30;;;;;;;2.15;2.15;;;26.30;57.50;;;;;;5044851;28;20187;-76
2022/09/12 10:56:17;;;;;;;2.10;2.10;;;25.60;58.40;;;;;;5055358;28;20549;-76
2022/09/12 10:58:57;;;;;;;2.15;2.15;;;25.40;58.70;;;;;;5053009;28;20245;-75
2022/09/12 11:01:35;;;;;;;2.28;2.28;;;25.30;58.80;;;;;;5052911;28;20745;-75
2022/09/12 11:04:07;;;;;;;2.50;2.30;;;25.00;59.20;;;;;;5051139;28;20217;-76
2022/09/12 11:07:11;;;;;;;2.45;2.35;;;24.80;59.70;;;;;;5048507;28;20983;-76
2022/09/12 11:10:01;;;;;;;2.72;2.72;;;24.40;60.50;;;;;;5046978;28;20273;-75
2022/09/12 11:12:36;;;;;;;2.28;2.28;;;24.40;61.10;;;;;;5046168;28;20226;-75
2022/09/12 11:15:31;;;;;;;2.03;2.03;;;24.50;60.90;;;;;;5048234;28;20228;-75
2022/09/12 11:18:19;;;;;;;2.55;2.55;;;24.00;61.50;;;;;;5056267;28;20602;-75
2022/09/12 11:21:01;;;;;;;2.08;2.08;;;23.90;62.00;;;;;;5053044;28;20742;-77
2022/09/12 11:23:33;;;;;;;2.35;2.20;;;24.20;61.80;;;;;;5049676;28;21012;-76
2022/09/12 11:26:17;;;;;;;2.13;2.13;;;24.40;60.30;;;;;;5050686;28;20179;-76
2022/09/12 11:28:53;;;;;;;2.53;2.45;;;24.30;60.80;;;;;;5048351;28;20191;-75
2022/09/12 11:31:26;;;;;;;2.42;2.42;;;24.50;61.10;;;;;;5055298;28;20300;-75
2022/09/12 11:33:54;;;;;;;2.60;2.50;;;24.60;60.80;;;;;;5047355;28;20198;-76
2022/09/12 11:36:36;;;;;;;7.72;2.80;;;24.80;60.80;;;;;;5053854;28;20186;-76
2022/09/12 11:39:21;;;;;;;2.60;2.50;;;25.00;59.80;;;;;;5053317;28;20252;-76
2022/09/12 11:41:54;;;;;;;2.50;2.38;;;25.20;60.30;;;;;;5050353;28;20626;-76
2022/09/12 11:44:34;;;;;;;2.38;2.38;;;25.30;59.50;;;;;;5053284;28;20280;-76
2022/09/12 11:47:04;;;;;;;2.63;2.53;;;25.40;60.10;;;;;;5050108;28;20183;-75
2022/09/12 11:49:57;;;;;;;3.10;3.00;;;25.70;59.60;;;;;;5053306;28;20421;-75
2022/09/12 11:52:23;;;;;;;2.47;2.47;;;26.10;59.40;;;;;;5050465;28;20234;-75
2022/09/12 11:55:06;;;;;;;2.78;2.67;;;26.30;58.50;;;;;;5056506;28;20198;-76
2022/09/12 11:57:47;;;;;;;2.92;2.72;;;26.40;58.90;;;;;;5050037;28;20246;-77
2022/09/12 12:00:29;;;;;;;2.55;2.55;;;26.70;58.60;;;;;;5053592;28;20194;-76
2022/09/12 12:03:28;;;;;;;3.08;2.72;;;26.80;58.50;;;;;;5051559;28;20762;-75
2022/09/12 12:06:09;;;;;;;2.35;2.33;;;26.50;58.80;;;;;;5051618;28;20187;-75
2022/09/12 12:08:41;;;;;;;2.58;2.58;;;26.60;59.00;;;;;;5051857;28;20214;-76
2022/09/12 12:11:25;;;;;;;2.47;2.28;;;26.80;59.20;;;;;;5048434;28;20690;-75
2022/09/12 12:14:00;;;;;;;1.90;1.90;;;27.10;57.80;;;;;;5050337;28;20180;-76
2022/09/12 12:16:40;;;;;;;1.67;1.67;;;27.50;56.50;;;;;;5048305;28;20244;-77
2022/09/12 12:19:15;;;;;;;2.75;2.22;;;27.80;56.20;;;;;;5054194;28;20185;-75
2022/09/12 12:21:48;;;;;;;4.88;1.75;;;28.10;55.60;;;;;;5049126;28;20193;-75
2022/09/12 12:24:20;;;;;;;1.77;1.70;;;28.30;55.50;;;;;;5054171;28;20268;-75
2022/09/12 12:27:01;;;;;;;1.88;1.88;;;28.30;56.20;;;;;;5047030;28;20179;-75
2022/09/12 12:29:41;;;;;;;1.70;1.63;;;28.50;55.70;;;;;;5056539;28;20175;-75
2022/09/12 12:32:07;;;;;;;1.58;1.58;;;28.20;55.20;;;;;;5053352;28;20253;-76
2022/09/12 12:34:38;;;;;;;1.70;1.70;;;27.70;55.70;;;;;;5054278;28;20207;-74
2022/09/12 12:37:24;;;;;;;1.63;1.63;;;27.30;55.50;;;;;;5052493;28;20636;-77
2022/09/12 12:39:50;;;;;;;1.10;1.10;;;26.60;56.90;;;;;;5051285;28;20939;-77
2022/09/12 12:42:31;;;;;;;5.70;1.52;;;26.30;57.80;;;;;;5048866;28;20599;-76
2022/09/12 12:44:58;;;;;;;1.45;1.45;;;26.20;58.30;;;;;;5046516;28;20286;-77
2022/09/12 12:47:30;;;;;;;1.60;1.60;;;26.30;58.60;;;;;;5051524;28;20190;-76
2022/09/12 12:50:01;;;;;;;1.58;1.58;;;26.50;58.90;;;;;;5053108;28;20252;-75
2022/09/12 12:52:31;;;;;;;1.52;1.42;;;26.50;58.20;;;;;;5050124;28;20221;-76
2022/09/12 12:55:00;;;;;;;1.60;1.60;;;26.10;57.60;;;;;;5050009;28;20332;-76
2022/09/12 12:57:48;;;;;;;1.70;1.70;;;25.70;59.00;;;;;;5053853;28;20245;-75
2022/09/12 13:00:19;;;;;;;1.27;1.27;;;25.60;59.20;;;;;;5053746;28;20188;-76
2022/09/12 13:03:16;;;;;;;1.63;1.63;;;25.50;59.20;;;;;;5057239;28;20192;-76
2022/09/12 13:05:46;;;;;;;1.70;1.70;;;25.60;59.60;;;;;;5021812;28;20295;-76
2022/09/12 13:08:18;;;;;;;1.70;1.70;;;25.80;59.60;;;;;;5022812;28;20205;-75
2022/09/12 13:10:52;;;;;;;1.85;1.85;;;25.50;60.00;;;;;;5022203;28;20197;-77
2022/09/12 13:13:33;;;;;;;4.18;2.03;;;24.90;60.40;;;;;;5023471;28;20275;-76
2022/09/12 13:15:58;;;;;;;1.88;1.88;;;24.60;61.00;;;;;;5023560;28;20188;-76
2022/09/12 13:18:32;;;;;;;2.25;2.15;;;24.10;61.80;;;;;;5023694;28;20646;-76
2022/09/12 13:21:07;;;;;;;1.75;1.75;;;23.80;62.50;;;;;;5022565;28;20724;-76